Ban Chong Riang, Thailand

8:41 AM +07 on May 27, 2017 (GMT +0700)
Trang | | Change Station

Elev 46 ft 7.52 °N, 99.62 °E | Updated 41 minutes ago

Mostly Cloudy
Mostly Cloudy
79 °F
Feels Like 79 °F
N
0
Wind Variable Wind from North

Today
High -- | Low -- °F
--% Chance of Precip.
Yesterday
High -- | Low -- °F
Precip. -- in
Pressure 29.74 in
Visibility 4.3 miles
Clouds Scattered Clouds 1700 ft
Scattered Clouds 2300 ft
Dew Point 77 °F
Humidity 94%
Rainfall 0.00 in
Snow Depth Not available.
6:03 AM 6:35 PM
New Moon, 2% visible
METAR VTST 270100Z 00000KT 7000 -RA SCT017 SCT023 26/25 Q1007 RWY08 INFO B
Pressure 29.74 in
Visibility 4.3 miles
Clouds Scattered Clouds 1700 ft
Scattered Clouds 2300 ft
Dew Point 77 °F
Humidity 94%
Rainfall 0.00 in
Snow Depth Not available.
6:03 AM 6:35 PM
New Moon, 2% visible
METAR VTST 270100Z 00000KT 7000 -RA SCT017 SCT023 26/25 Q1007 RWY08 INFO B

Get Severe Weather Alerts

Thanks for signing up!

Be on the lookout for a verification email in your inbox.

You'll start receiving the daily forecast at 6 AM.

×

10-Day Weather Forecast

No radar image for this location.
×

Almanac

Astronomy

May. 27, 2017 Rise Set
Actual Time
Civil Twilight
Nautical Twilight
Astronomical Twilight
Moon
Length of Visible Light
Length of Day
Tomorrow will be .
, % of the Moon is Illuminated

Today's Extremes

Country Highs Country Lows

Community

WunderPhotos

Category 6

Welcome to Category 6. This is the collective home for Weather Underground's featured writeups by Dr. Jeff Masters (right), Bob Henson (left), Chris Burt, and other regular contributors.

Nearby

Air Quality

  Air Quality AQ Index Pollutant
Not available.

Snow Depth

Station Depth Elevation

Earthquake Activity

City Distance Mag. Time & Date
Minimum magnitude displayed is 2.5.

Coastal Water Temperatures

Place Temperature

Stations

Nearby Weather Stations

Station Location Temp. Windchill Dew Point Humidity Wind Precip. Elev Updated Type